Henrique Guimarães

Olheiro - Fluminense
4 Abr 2027
Domingo
Processo

Personalidade

Adaptabilidade (10) Ambição (19) Controvérsia (20) Lealdade (13) Pressão (9) Profissionalismo (17) Espírito Esportivo (5) Temperamento (13)

Perfil

Estilo de Treinamento Democrático
Licença Continental B
Determinação 9
Gestão de Pessoas 14
Motivação 5
Disciplina 15
Satisfação no Trabalho
98%
Fadiga
0%
Função Olheiro
Salário 66.2K p/s
Contrato 14.03.2028

Desempenho

Comportamento Bom
Eficácia do Treinamento
53%
Desenvolvimento do Jogador
60%
Prevenção de Lesões
50%
Implementação Tática
50%

Eventos Recentes

Avaliou um jogador agora
Participou de uma reunião de recrutamento agora
Avaliou um jogador agora
Avaliou um jogador agora
Avaliou um jogador agora
Avaliou um jogador 7d atrás
Avaliou um jogador 7d atrás
Avaliou um jogador 7d atrás

Monitorando agora

217
Jogador Clube Status Habilidade Confiança Observado Última observação Último voto
Felipe Augusto Zenit Ativo 135 / 134 40% 7 03.04.2027 -
Kiril Despodov PAOK Ativo 132 / 138 40% 4 03.04.2027 -
Raúl García Osasuna Ativo 139 / 129 40% 2 03.04.2027 -
Michy Fellaini KV Oostende Ativo 131 / 128 40% 7 02.04.2027 -
Aitor Ruibal Betis Ativo 143 / 132 40% 4 02.04.2027 -
João Teixeira Porto Ativo 105 / 117 40% 1 01.04.2027 -
Moncef Zekri Sporting CP Ativo 90 / 109 40% 1 01.04.2027 -
Rhys Chadwick Peterborough United Ativo 104 / 102 40% 1 01.04.2027 -
Leandro Andrade Polissia Ativo 134 / 133 40% 2 31.03.2027 -
Zizo Al Ahly Ativo 132 / 139 40% 1 31.03.2027 -
Alan KAA Gent Ativo 132 / 141 40% 1 31.03.2027 -
Iqraam Rayners Mamelodi Sundowns Ativo 138 / 122 40% 7 30.03.2027 -
Kauã Elias Shakhtar Ativo 125 / 136 40% 10 30.03.2027 -
Boulaye Dia Lazio Ativo 137 / 138 40% 6 30.03.2027 -
Christian Kouamé Aris Thessaloniki Ativo 127 / 118 40% 10 29.03.2027 -
José Manuel López Palmeiras Ativo 132 / 136 40% 4 29.03.2027 -
Wesley Saïd RC Lens Ativo 142 / 125 40% 6 28.03.2027 -
Cristian Shpendi Cesena Ativo 131 / 120 40% 3 28.03.2027 -
Jason Januzaj Mouscron Ativo 154 / 157 40% 1 28.03.2027 -
Soufiane Rahimi Al Ain Ativo 140 / 147 40% 8 27.03.2027 -
Jonathan Rowe Bologna Ativo 139 / 125 40% 4 27.03.2027 -
Rabby Nzingoula West Bromwich Albion Ativo 121 / 137 40% 1 27.03.2027 -
Miguel Figueiredo Benfica Ativo 114 / 114 40% 1 27.03.2027 -
Rafiu Durosinmi Racing Genk Ativo 132 / 125 40% 5 25.03.2027 -
Dany Mota Monza Ativo 130 / 142 40% 8 24.03.2027 -
Luka Jović AEK Ativo 144 / 133 40% 5 23.03.2027 -
Giovanni Simeone Torino Ativo 137 / 144 40% 3 23.03.2027 -
Jonas Wind Braga Ativo 142 / 133 40% 1 21.03.2027 -
Jean-Luc Morin Tours Ativo 138 / 130 40% 1 20.03.2027 -
Facundo Torres Shakhtar Ativo 134 / 124 40% 2 19.03.2027 -
Lukáš Provod Slavia Prague Ativo 150 / 154 40% 4 19.03.2027 -
Sebastián Córdova Pumas UNAM Ativo 132 / 124 40% 4 18.03.2027 -
Marcel Ruiz Toluca Ativo 145 / 139 40% 5 18.03.2027 -
Yanis Begraoui Estoril Praia Ativo 131 / 126 40% 4 18.03.2027 -
Carlos Vinícius Grêmio Ativo 138 / 142 40% 8 15.03.2027 -
Clayton Olympiacos Ativo 129 / 125 40% 7 14.03.2027 -
Manfred Ugalde Spartak Moscow Ativo 128 / 138 40% 2 13.03.2027 -
Anthony Patterson Wrexham Ativo 137 / 125 40% 4 12.03.2027 -
Adriel Torreense Ativo 125 / 107 40% 2 12.03.2027 -
Nathan Bishop AFC Wimbledon Ativo 106 / 105 40% 1 12.03.2027 -
Hwang In-Beom Porto Ativo 145 / 154 40% 4 11.03.2027 -
Orbelín Pineda Monterrey Ativo 141 / 135 40% 3 11.03.2027 -
Cezary Miszta Rio Ave Ativo 127 / 126 40% 5 10.03.2027 -
Lukas Jensen Millwall Ativo 115 / 123 40% 3 10.03.2027 -
Edoardo Corvi Parma Ativo 129 / 131 40% 1 10.03.2027 -
Ivan Toney Al-Ahli Ativo 153 / 150 40% 1 09.03.2027 -
Michael Cooper Sheffield United Ativo 132 / 127 40% 4 07.03.2027 -
Jordan Amissah Burton Albion Ativo 105 / 113 40% 1 07.03.2027 -
Cesar Corona Veracruz Ativo 138 / 141 40% 9 05.03.2027 -
João Palhinha Benfica Ativo 151 / 142 40% 5 05.03.2027 -
Ernest Muçi Trabzonspor Ativo 126 / 128 40% 2 05.03.2027 -
Malcom Al Jazira Ativo 155 / 136 40% 2 05.03.2027 -
Alejandro Zendejas Club America Ativo 146 / 133 40% 1 04.03.2027 -
Luca Orellano Monterrey Ativo 138 / 135 40% 7 02.03.2027 -
Efraín Álvarez Guadalajara Ativo 137 / 126 40% 1 02.03.2027 -
Alexey Miranchuk Newcastle United Ativo 138 / 138 40% 1 28.02.2027 -
Myles Roberts Doncaster Rovers Ativo 99 / 98 40% 1 28.02.2027 -
Lorenzo Palmisani Frosinone Ativo 128 / 131 40% 1 25.02.2027 -
Yuri Alberto Corinthians Ativo 144 / 139 40% 1 25.02.2027 -
Marcelo Allende Mamelodi Sundowns Ativo 135 / 134 40% 1 23.02.2027 -
Breel Embolo Brighton Ativo 138 / 132 40% 1 22.02.2027 -
Pol Tristán Bradford City Ativo 120 / 107 40% 1 21.02.2027 -
Vitor Hugo Lusitânia Lourosa Ativo 101 / 99 40% 1 21.02.2027 -
Jesús Ricardo Angulo Toluca Ativo 131 / 128 40% 4 19.02.2027 -
Nemanja Radonjić Crvena Zvezda Ativo 130 / 135 40% 4 19.02.2027 -
Murphy Cooper Plymouth Argyle Ativo 115 / 118 40% 2 17.02.2027 -
Leo Kokubo Sint-Truiden Ativo 113 / 104 40% 1 17.02.2027 -
Chiquinho Alverca Ativo 131 / 116 40% 1 16.02.2027 -
Yuki Kakita FC Copenhagen Ativo 133 / 128 40% 2 15.02.2027 -
Abdullah Juma Al Ahli Ativo 131 / 122 40% 2 13.02.2027 -
Henry Mosquera Bragantino Ativo 134 / 136 40% 2 12.02.2027 -
Andreas Schjelderup Benfica Ativo 134 / 132 40% 1 12.02.2027 -
Petar Stanić Ludogorets Ativo 144 / 140 40% 1 12.02.2027 -
Helinho Toluca Ativo 135 / 132 40% 3 11.02.2027 -
Matheus Pereira Cruzeiro Ativo 138 / 148 40% 3 11.02.2027 -
Haissem Hassan Bloemfontein Celtic Ativo 137 / 136 40% 2 11.02.2027 -
Diego Rossi Monterrey Ativo 139 / 139 40% 1 06.02.2027 -
Aral Şimşir Trabzonspor Ativo 130 / 129 40% 3 03.02.2027 -
Exequiel Zeballos Boca Juniors Ativo 134 / 128 40% 2 31.01.2027 -
Uwe Franke Mouscron Ativo 126 / 120 40% 2 29.01.2027 -
Kein Sato FC Tokyo Ativo 138 / 141 40% 3 26.01.2027 -
João Carvalho Estoril Praia Ativo 139 / 127 40% 1 26.01.2027 -
Leroy Sané Galatasaray Ativo 161 / 163 40% 1 26.01.2027 -
Daniel Bragança Sporting CP Ativo 135 / 146 40% 1 25.01.2027 -
Gabriel Brazão Santos Ativo 131 / 139 40% 8 23.01.2027 -
Bernardo Fontes Braga Ativo 124 / 138 40% 5 23.01.2027 -
Francis Amuzu Grêmio Ativo 133 / 128 40% 3 23.01.2027 -
George Wickens Lincoln City Ativo 118 / 116 40% 2 23.01.2027 -
Marquinhos Spartak Moscow Ativo 135 / 120 40% 2 20.01.2027 -
Axel Openda KV Oostende Ativo 131 / 125 40% 1 20.01.2027 -
Isidro Pitta Bragantino Ativo 130 / 126 40% 7 17.01.2027 -
Vitinha Genoa Ativo 136 / 139 40% 2 17.01.2027 -
Pablo Rosario Porto Ativo 132 / 134 40% 6 15.01.2027 -
Santi García Gil Vicente Ativo 138 / 133 40% 3 15.01.2027 -
Akor Adams Venezia Ativo 144 / 143 40% 2 15.01.2027 -
Agustín Palavecino Cruz Azul Ativo 135 / 143 40% 1 13.01.2027 -
Patrick Sequeira Casa Pia Ativo 125 / 118 40% 6 11.01.2027 -
Evidence Billiat Ajax Cape Town Ativo 106 / 101 40% 1 11.01.2027 -
João Valido Chaves Ativo 106 / 104 40% 2 03.01.2027 -
Luciano Juba Bahia Ativo 133 / 137 40% 3 29.12.2026 -
Leo Ceara Kashima Antlers Ativo 140 / 138 40% 2 26.12.2026 -
Moussa Dembélé Al-Ettifaq Ativo 135 / 127 40% 2 21.12.2026 -
Tomáš Chorý Slavia Prague Ativo 136 / 138 40% 1 20.12.2026 -
Reda Khadra Qarabag Ativo 132 / 128 40% 1 17.12.2026 -
Gérson Cruzeiro Ativo 143 / 133 40% 1 17.12.2026 -
Roger Brugué Levante Ativo 132 / 125 40% 2 10.12.2026 -
Gorka Guruzeta Athletic Bilbao Ativo 148 / 154 40% 2 07.12.2026 -
Enes Ünal Getafe Ativo 141 / 126 40% 2 03.12.2026 -
Dani Raba Valencia Ativo 140 / 141 40% 1 03.12.2026 -
Maik Sport Recife Rejeitado 122 / 120 79% 1 02.12.2026 -
Germán Berterame Inter Miami CF Ativo 137 / 140 40% 1 02.12.2026 -
Juan Otero Gijón Ativo 129 / 137 40% 1 02.12.2026 -
Jonathan Calleri Sport Recife Rejeitado 131 / 138 79% 1 01.12.2026 -
Karim Konaté Red Bull Salzburg Ativo 128 / 131 40% 1 01.12.2026 -
Leonardo Lelo Braga Ativo 130 / 132 40% 5 29.11.2026 -
Paulo Henrique Vasco da Gama Ativo 128 / 130 40% 3 29.11.2026 -
Luciano Gondou CSKA Moscow Ativo 131 / 136 40% 1 29.11.2026 -
Jesús Orozco Chiquete Cruz Azul Ativo 129 / 138 40% 1 29.11.2026 -
Lazar Carević Famalicao Ativo 132 / 139 40% 3 28.11.2026 -
Álex Remiro Real Sociedad Ativo 150 / 159 40% 6 28.11.2026 -
Sebastián Meza Huracán Ativo 124 / 120 40% 3 26.11.2026 -
Gustavo Silva Vitoria Guimaraes Ativo 129 / 131 40% 3 26.11.2026 -
Yousef Salech Cardiff City Ativo 133 / 129 40% 1 26.11.2026 -
Gustaf Lagerbielke Braga Ativo 132 / 126 40% 3 23.11.2026 -
Caio Alexandre Bahia Ativo 139 / 126 40% 2 23.11.2026 -
Jonmi Magunagoitia Eibar Ativo 123 / 127 40% 3 23.11.2026 -
Josh Keeley Luton Town Ativo 125 / 130 40% 2 23.11.2026 -
Jakub Stolarczyk Leicester City Ativo 128 / 143 40% 3 22.11.2026 -
Zé Leite Oliveirense Ativo 111 / 126 40% 3 20.11.2026 -
Camilo Durán Bloemfontein Celtic Ativo 125 / 126 40% 2 20.11.2026 -
Korede Osundina Casa Pia Ativo 116 / 123 40% 1 20.11.2026 -
Vitinho Botafogo Ativo 140 / 142 40% 4 19.11.2026 -
Sam Tickle Wigan Athletic Ativo 128 / 116 40% 3 19.11.2026 -
Lyanco Atlético Mineiro Ativo 136 / 134 40% 1 18.11.2026 -
Héctor Bellerín Betis Ativo 136 / 133 40% 1 18.11.2026 -
Javi Sánchez Arouca Ativo 132 / 133 40% 1 18.11.2026 -
Ezequiel Centurión River Plate Ativo 125 / 121 40% 1 17.11.2026 -
Henrique Araújo Casa Pia Ativo 114 / 123 40% 2 16.11.2026 -
Itumeleng Tau Ajax Cape Town Ativo 120 / 112 40% 1 16.11.2026 -
Hugo Souza Corinthians Ativo 131 / 131 40% 8 14.11.2026 -
Alfonso Pastor Maritimo Ativo 105 / 113 40% 2 14.11.2026 -
Enzo Díaz Sport Recife Ativo 133 / 141 40% 2 14.11.2026 -
Lucas Piton Vasco da Gama Ativo 134 / 128 40% 2 14.11.2026 -
Joaquín Piquerez Palmeiras Ativo 131 / 135 40% 1 12.11.2026 -
Bright Arrey-Mbi Braga Ativo 129 / 140 40% 4 11.11.2026 -
Federico Pereira Toluca Ativo 138 / 134 40% 1 11.11.2026 -
Kenny Tete Fulham Rejeitado 139 / 140 40% 1 11.11.2026 Mais informações
João Costa Santa Clara Ativo 104 / 111 40% 2 09.11.2026 -
Jon Karrikaburu Burgos Ativo 130 / 124 40% 1 09.11.2026 -
Jorge Meireles AVS Ativo 116 / 117 40% 2 08.11.2026 -
Figueiredo Alverca Ativo 134 / 134 40% 1 08.11.2026 -
Juan Soriano Académico de Viseu Ativo 122 / 117 40% 4 07.11.2026 -
Carl Rushworth Coventry City Ativo 131 / 130 40% 4 07.11.2026 -
Ismaël Bennacer Palmeiras Ativo 145 / 150 40% 2 06.11.2026 -
Antonio Sivera Alavés Ativo 144 / 135 40% 4 06.11.2026 -
Sikou Niakaté Braga Ativo 132 / 142 40% 3 03.11.2026 -
Luis Romo Guadalajara Ativo 136 / 146 40% 1 03.11.2026 -
Jan Bednarek Porto Ativo 140 / 149 40% 3 01.11.2026 -
Jon Guridi Sevilla Ativo 135 / 129 40% 2 01.11.2026 -
Renan Lodi Atlético Mineiro Ativo 134 / 136 40% 1 01.11.2026 -
Percy Erasmus SuperSport United Ativo 121 / 125 40% 1 31.10.2026 -
Alexandre Duville-Parsemain Moreirense Ativo 106 / 119 40% 1 31.10.2026 -
Carlos Acevedo Santos Laguna Ativo 127 / 133 40% 2 30.10.2026 -
Jean America de Cali Ativo 132 / 131 40% 4 29.10.2026 -
Radek Vítek Middlesbrough Ativo 135 / 128 40% 3 29.10.2026 -
Fabrício Bruno Cruzeiro Ativo 135 / 128 40% 2 29.10.2026 -
Luis Ingolotti Atlético Tucumán Ativo 124 / 114 40% 1 27.10.2026 -
Marcos Antonio Sport Recife Ativo 139 / 141 40% 2 25.10.2026 -
Sergi Altimira Sporting CP Ativo 133 / 150 40% 1 25.10.2026 -
Dean Henderson Crystal Palace Ativo 156 / 135 40% 3 23.10.2026 -
Aarón Escandell Oviedo Ativo 128 / 134 40% 1 23.10.2026 -
William Cruzeiro Ativo 135 / 130 40% 1 22.10.2026 -
Matheus Henrique Cruzeiro Ativo 129 / 141 40% 1 21.10.2026 -
Pablo Ramón Racing Club Ativo 130 / 129 40% 1 21.10.2026 -
Dayne St. Clair Inter Miami CF Ativo 123 / 127 40% 5 19.10.2026 -
Tomás Marchiori Vélez Ativo 132 / 136 40% 2 18.10.2026 -
Gabriel Batista Botafogo Ativo 129 / 133 40% 1 17.10.2026 -
Nathan Trott Cardiff City Ativo 121 / 129 40% 1 15.10.2026 -
Ignacio de Arruabarrena Arouca Ativo 124 / 120 40% 3 13.10.2026 -
Alfonso Trezza Arouca Ativo 118 / 109 40% 2 10.10.2026 -
Vinícius Lopes Santa Clara Ativo 125 / 128 40% 1 10.10.2026 -
Sydney van Hooijdonk Estrela da Amadora Ativo 113 / 103 40% 1 09.10.2026 -
Tadeo Allende Inter Miami CF Ativo 125 / 126 40% 1 09.10.2026 -
Zack Steffen Colorado Rapids Ativo 126 / 126 40% 2 04.10.2026 -
Alan Velasco Boca Juniors Ativo 129 / 137 40% 1 04.10.2026 -
James Trafford Leeds United Ativo 143 / 141 40% 1 04.10.2026 -
Tamble Monteiro Rio Ave Ativo 116 / 129 40% 2 30.09.2026 -
Louis Munteanu DC United Ativo 125 / 117 40% 1 30.09.2026 -
Eduardo Quaresma Sporting CP Ativo 143 / 138 40% 2 27.09.2026 -
Nehuén Pérez Porto Ativo 135 / 147 40% 2 26.09.2026 -
Vitor Carvalho Braga Ativo 138 / 122 40% 1 26.09.2026 -
Willer Ditta Cruz Azul Ativo 131 / 143 40% 1 24.09.2026 -
Mauro Arambarri River Plate Ativo 151 / 157 40% 3 22.09.2026 -
Alessandro Circati Benfica Ativo 127 / 139 40% 1 21.09.2026 -
Arthur Palmeiras Ativo 139 / 131 40% 1 21.09.2026 -
Nicolás Fernández Mercau New York City Ativo 131 / 130 40% 1 21.09.2026 -
Leandro Barreiro Benfica Ativo 136 / 143 40% 2 19.09.2026 -
Mathías Villasanti Grêmio Ativo 130 / 139 40% 2 16.09.2026 -
Jean Lucas Bahia Ativo 141 / 126 40% 1 16.09.2026 -
Bénie Traoré New York City Ativo 125 / 117 40% 1 15.09.2026 -
Liel Abada Charlotte Football Club Ativo 129 / 136 40% 1 15.09.2026 -
Zeno Debast Sporting CP Ativo 146 / 154 40% 2 14.09.2026 -
Drake Callender Minnesota United FC Ativo 122 / 125 40% 1 13.09.2026 -
Chris Brady Chicago Fire Ativo 131 / 129 40% 1 12.09.2026 -
Tiago Silva Penafiel Ativo 107 / 118 40% 1 11.09.2026 -
Sebastian Hernandez Cortulua Ativo 120 / 112 40% 1 11.09.2026 -
Giorgos Koutsias Famalicao Ativo 114 / 114 40% 2 06.09.2026 -
Dylan Nandín Arouca Ativo 104 / 101 40% 1 02.09.2026 -
Joseph Nduquidi Farense Ativo 102 / 120 40% 1 06.08.2026 -
Josh Wynder Benfica Ativo 99 / 124 40% 1 06.08.2026 -
Pedro Lima Wolverhampton Ativo 105 / 130 40% 2 05.08.2026 -
Héctor Fort Real Sociedad Ativo 138 / 134 40% 1 05.08.2026 -
Tiago Freitas Benfica Ativo 107 / 117 40% 1 05.08.2026 -
Xavi Grande Levante Ativo 112 / 127 40% 1 04.08.2026 -
Troy Parrott Betis Ativo 131 / 135 40% 1 04.08.2026 -
Roberto Fernández Braga Ativo 131 / 151 40% 1 04.08.2026 -
Nicolás Ibáñez Cruz Azul Ativo 140 / 139 40% 1 01.08.2026 -